Erwinville, Louisiana
Current Conditions -  °F | °C
As of 10:15 AM on Monday 22 Dec 2014 (Local Time) from KHZR Reporting Station
Moderate Fog Moderate Fog  
Wind Chill: 60°   Ceiling: 200
Heat Index: 60°   Visibility: 0.25mi
Dew Point: 60°   Wind: 7mph
Humidity: 99%   Direction: 130°SE
Pressure: 29.79"   Gusts: NA
Location:  30.53°N, 91.41°W
Report Text: KHZR 221615Z AUTO 13006KT 1/4SM FG OVC002 16/15 A2979 RMK AO2 LTG DSNT E T01560154
Loading
Personal Weather Stations






























Interactive Weather Map New forecast layout! Learn more

10-Day Weather Forecast

Advertisements
Track Severe Weather on mobile